createdAt,value
2018-12-14T00:01:01.645Z,28.52
2018-12-14T00:03:30.600Z,28.80
2018-12-14T00:05:59.632Z,32.67
2018-12-14T00:08:28.574Z,29.67
2018-12-14T00:10:57.488Z,31.87
2018-12-14T00:13:26.458Z,29.27
2018-12-14T00:15:55.350Z,30.32
2018-12-14T00:18:24.285Z,29.23
2018-12-14T00:20:53.295Z,28.67
2018-12-14T00:23:22.227Z,30.30
2018-12-14T00:25:51.169Z,25.10
2018-12-14T00:28:20.153Z,29.07
2018-12-14T00:30:49.031Z,27.13
2018-12-14T00:33:17.915Z,27.77
2018-12-14T00:35:47.090Z,26.45
2018-12-14T00:38:16.001Z,30.27
2018-12-14T00:40:44.928Z,29.48
2018-12-14T00:43:14.007Z,28.00
2018-12-14T00:45:42.982Z,31.42
2018-12-14T00:48:11.854Z,32.60
2018-12-14T00:50:40.847Z,30.08
2018-12-14T00:53:10.450Z,32.17
2018-12-14T00:55:39.363Z,28.35
2018-12-14T00:58:08.363Z,30.88
2018-12-14T01:00:37.250Z,25.40
2018-12-14T01:03:06.108Z,29.40
2018-12-14T01:05:35.046Z,27.42
2018-12-14T01:08:03.989Z,30.32
2018-12-14T01:10:32.881Z,28.52
2018-12-14T01:13:01.789Z,26.12
2018-12-14T01:15:31.115Z,25.32
2018-12-14T01:18:00.029Z,23.07
2018-12-14T01:20:29.566Z,26.15
2018-12-14T01:22:58.474Z,26.75
2018-12-14T01:25:27.359Z,23.10
2018-12-14T01:27:56.422Z,30.75
2018-12-14T01:30:25.350Z,25.02
2018-12-14T01:32:54.303Z,24.95
2018-12-14T01:35:23.269Z,27.13
2018-12-14T01:37:52.129Z,27.52
2018-12-14T01:40:21.022Z,25.77
2018-12-14T01:42:49.978Z,24.70
2018-12-14T01:45:18.910Z,27.07
2018-12-14T01:47:47.800Z,26.37
2018-12-14T01:50:16.788Z,26.97
2018-12-14T01:52:45.921Z,25.65
2018-12-14T01:55:15.736Z,27.77
2018-12-14T01:57:44.986Z,22.80
2018-12-14T02:00:14.156Z,26.02
2018-12-14T02:02:43.074Z,24.75
2018-12-14T02:05:12.007Z,27.20
2018-12-14T02:07:40.890Z,29.07
2018-12-14T02:10:09.869Z,27.40
2018-12-14T02:12:38.792Z,31.10
2018-12-14T02:15:07.754Z,29.60
2018-12-14T02:17:36.647Z,27.50
2018-12-14T02:20:05.960Z,28.25
2018-12-14T02:22:35.200Z,25.90
2018-12-14T02:25:04.192Z,24.75
2018-12-14T02:27:33.126Z,22.95
2018-12-14T02:30:12.219Z,28.95
2018-12-14T02:32:41.177Z,27.70
2018-12-14T02:35:10.036Z,24.37
2018-12-14T02:37:38.995Z,22.95
2018-12-14T02:40:08.271Z,21.68
2018-12-14T02:42:37.163Z,26.62
2018-12-14T02:45:06.524Z,29.52
2018-12-14T02:47:35.434Z,20.90
2018-12-14T02:50:05.208Z,24.30
2018-12-14T02:52:34.208Z,21.52
2018-12-14T02:55:03.248Z,24.70
2018-12-14T02:57:32.130Z,24.90
2018-12-14T03:00:01.058Z,23.60
2018-12-14T03:02:30.034Z,22.37
2018-12-14T03:04:58.986Z,25.40
2018-12-14T03:07:27.884Z,24.12
2018-12-14T03:09:56.810Z,23.65
2018-12-14T03:12:26.803Z,21.80
2018-12-14T03:14:55.937Z,26.30
2018-12-14T03:17:25.223Z,22.90
2018-12-14T03:19:54.672Z,22.07
2018-12-14T03:22:24.001Z,22.73
2018-12-14T03:24:52.912Z,23.57
2018-12-14T03:27:21.819Z,24.18
2018-12-14T03:29:51.669Z,22.62
2018-12-14T03:32:20.594Z,21.62
2018-12-14T03:34:49.528Z,25.92
2018-12-14T03:37:18.411Z,21.85
2018-12-14T03:39:47.972Z,22.60
2018-12-14T03:42:16.912Z,20.17
2018-12-14T03:44:45.856Z,19.17
2018-12-14T03:47:14.829Z,21.80
2018-12-14T03:49:43.761Z,21.57
2018-12-14T03:52:12.679Z,22.02
2018-12-14T03:54:41.676Z,21.12
2018-12-14T03:57:10.647Z,24.12
2018-12-14T03:59:39.599Z,23.90
2018-12-14T04:02:08.664Z,21.82
2018-12-14T04:04:37.553Z,23.55
2018-12-14T04:07:06.481Z,25.82
2018-12-14T04:09:35.464Z,23.83
2018-12-14T04:12:04.413Z,23.98
2018-12-14T04:14:34.491Z,21.87
2018-12-14T04:17:03.427Z,25.92
2018-12-14T04:19:32.272Z,21.07
2018-12-14T04:22:01.181Z,23.47
2018-12-14T04:24:30.089Z,22.05
2018-12-14T04:26:58.993Z,21.68
2018-12-14T04:29:27.938Z,24.25
2018-12-14T04:31:57.324Z,24.43
2018-12-14T04:34:26.247Z,23.07
2018-12-14T04:36:55.145Z,27.20
2018-12-14T04:39:24.069Z,23.80
2018-12-14T04:41:53.575Z,24.70
2018-12-14T04:44:22.477Z,23.20
2018-12-14T04:46:51.498Z,24.45
2018-12-14T04:49:20.604Z,25.20
2018-12-14T04:51:49.585Z,27.45
2018-12-14T04:54:18.528Z,27.85
2018-12-14T04:56:48.448Z,25.43
2018-12-14T04:59:17.349Z,24.85
2018-12-14T05:01:47.346Z,25.43
2018-12-14T05:04:16.256Z,25.95
2018-12-14T05:06:45.106Z,22.45
2018-12-14T05:09:14.071Z,25.70
2018-12-14T05:11:42.920Z,21.17
2018-12-14T05:14:11.893Z,27.70
2018-12-14T05:16:40.845Z,21.55
2018-12-14T05:19:09.804Z,23.92
2018-12-14T05:21:39.108Z,24.40
2018-12-14T05:24:08.067Z,22.95
2018-12-14T05:26:36.999Z,23.05
2018-12-14T05:29:05.889Z,23.32
2018-12-14T05:31:34.879Z,21.75
2018-12-14T05:34:03.794Z,25.02
2018-12-14T05:36:32.700Z,24.45
2018-12-14T05:39:01.680Z,28.17
2018-12-14T05:41:31.352Z,24.55
2018-12-14T05:44:00.470Z,25.20
2018-12-14T05:46:29.409Z,29.32
2018-12-14T05:48:58.427Z,24.65
2018-12-14T05:51:27.319Z,27.27
2018-12-14T05:53:56.300Z,24.82
2018-12-14T05:56:25.677Z,24.12
2018-12-14T05:58:54.721Z,23.35
2018-12-14T06:01:23.715Z,26.10
2018-12-14T06:03:55.253Z,25.95
2018-12-14T06:06:24.344Z,24.67
2018-12-14T06:08:53.224Z,23.20
2018-12-14T06:11:22.211Z,29.35
2018-12-14T06:13:51.172Z,24.55
2018-12-14T06:16:20.068Z,25.43
2018-12-14T06:18:49.291Z,27.90
2018-12-14T06:21:18.301Z,22.22
2018-12-14T06:23:47.264Z,26.73
2018-12-14T06:26:16.153Z,25.95
2018-12-14T06:28:45.068Z,25.48
2018-12-14T06:31:14.550Z,24.32
2018-12-14T06:33:43.503Z,24.47
2018-12-14T06:36:12.626Z,24.07
2018-12-14T06:38:41.499Z,22.45
2018-12-14T06:41:10.438Z,24.18
2018-12-14T06:43:39.399Z,23.45
2018-12-14T06:46:08.436Z,23.00
2018-12-14T06:48:37.321Z,25.05
2018-12-14T06:51:06.696Z,25.62
2018-12-14T06:53:35.635Z,24.82
2018-12-14T06:56:05.492Z,23.60
2018-12-14T06:58:34.421Z,27.70
2018-12-14T07:01:03.456Z,25.10
2018-12-14T07:03:32.377Z,24.40
2018-12-14T07:06:01.545Z,21.95
2018-12-14T07:08:31.348Z,24.07
2018-12-14T07:11:00.857Z,24.77
2018-12-14T07:13:29.897Z,22.05
2018-12-14T07:15:58.844Z,22.85
2018-12-14T07:18:27.737Z,23.65
2018-12-14T07:20:56.829Z,23.27
2018-12-14T07:23:25.952Z,21.85
2018-12-14T07:25:54.916Z,20.82
2018-12-14T07:28:23.850Z,21.95
2018-12-14T07:30:53.765Z,22.13
2018-12-14T07:33:22.659Z,21.12
2018-12-14T07:35:51.704Z,23.85
2018-12-14T07:38:21.262Z,22.20
2018-12-14T07:40:50.223Z,19.87
2018-12-14T07:43:19.142Z,19.00
2018-12-14T07:45:48.257Z,22.27
2018-12-14T07:48:17.150Z,19.80
2018-12-14T07:50:46.172Z,17.40
2018-12-14T07:53:15.047Z,19.55
2018-12-14T07:55:44.221Z,20.27
2018-12-14T07:58:13.294Z,20.05
2018-12-14T08:00:42.211Z,20.68
2018-12-14T08:03:11.195Z,18.25
2018-12-14T08:05:40.158Z,18.80
2018-12-14T08:08:10.520Z,20.55
2018-12-14T08:10:39.601Z,19.05
2018-12-14T08:13:08.698Z,19.73
2018-12-14T08:15:37.611Z,16.40
2018-12-14T08:18:06.582Z,15.70
2018-12-14T08:20:35.539Z,15.28
2018-12-14T08:23:04.495Z,16.20
2018-12-14T08:25:33.420Z,20.12
2018-12-14T08:28:02.699Z,17.80
2018-12-14T08:30:31.574Z,17.92
2018-12-14T08:33:00.506Z,18.20
2018-12-14T08:35:29.474Z,16.73
2018-12-14T08:37:58.344Z,18.52
2018-12-14T08:40:27.316Z,16.50
2018-12-14T08:42:56.905Z,18.17
2018-12-14T08:45:25.835Z,18.10
2018-12-14T08:47:55.193Z,18.30
2018-12-14T08:50:24.137Z,17.75
2018-12-14T08:52:53.214Z,17.45
2018-12-14T08:55:22.147Z,16.80
2018-12-14T08:57:51.885Z,16.05
2018-12-14T09:00:20.844Z,16.02
2018-12-14T09:02:49.787Z,17.25
2018-12-14T09:05:18.742Z,15.63
2018-12-14T09:07:47.619Z,13.95
2018-12-14T09:10:16.550Z,15.95
2018-12-14T09:12:45.537Z,15.28
2018-12-14T09:15:14.551Z,14.03
2018-12-14T09:17:43.468Z,16.45
2018-12-14T09:20:12.494Z,18.75
2018-12-14T09:22:41.469Z,17.23
2018-12-14T09:25:10.462Z,17.23
2018-12-14T09:27:39.382Z,16.05
2018-12-14T09:30:08.643Z,15.35
2018-12-14T09:32:37.653Z,12.68
2018-12-14T09:35:06.978Z,15.18
2018-12-14T09:37:35.840Z,15.95
2018-12-14T09:40:05.033Z,15.65
2018-12-14T09:42:34.013Z,13.95
2018-12-14T09:45:02.957Z,16.52
2018-12-14T09:47:31.934Z,15.15
2018-12-14T09:50:00.880Z,17.67
2018-12-14T09:52:30.130Z,16.45
2018-12-14T09:54:59.266Z,15.38
2018-12-14T09:57:28.232Z,14.38
2018-12-14T09:59:57.108Z,15.78
2018-12-14T10:02:25.991Z,13.62
2018-12-14T10:04:55.116Z,12.20
2018-12-14T10:07:24.156Z,11.75
2018-12-14T10:09:53.201Z,11.25
2018-12-14T10:12:22.414Z,10.82
2018-12-14T10:14:51.256Z,13.35
2018-12-14T10:17:21.564Z,12.80
2018-12-14T10:19:50.584Z,13.60
2018-12-14T10:22:19.588Z,13.03
2018-12-14T10:24:49.329Z,14.13
2018-12-14T10:27:18.285Z,12.88
2018-12-14T10:29:47.271Z,14.70
2018-12-14T10:32:16.155Z,15.68
2018-12-14T10:34:45.092Z,14.60
2018-12-14T10:37:14.375Z,14.23
2018-12-14T10:39:44.529Z,14.05
2018-12-14T10:42:13.542Z,12.95
2018-12-14T10:44:43.490Z,12.90
2018-12-14T10:47:12.386Z,14.35
2018-12-14T10:49:41.277Z,16.15
2018-12-14T10:52:10.520Z,15.30
2018-12-14T10:54:39.851Z,14.30
2018-12-14T10:57:08.780Z,17.32
2018-12-14T10:59:37.881Z,14.03
2018-12-14T11:02:06.849Z,15.63
2018-12-14T11:04:35.770Z,16.00
2018-12-14T11:07:04.657Z,15.28
2018-12-14T11:09:33.653Z,16.35
2018-12-14T11:12:02.557Z,13.53
2018-12-14T11:14:31.463Z,14.53
2018-12-14T11:17:00.418Z,14.45
2018-12-14T11:19:30.038Z,13.90
2018-12-14T11:21:58.900Z,15.00
2018-12-14T11:24:28.722Z,15.32
2018-12-14T11:26:57.604Z,14.78
2018-12-14T11:29:26.504Z,13.45
2018-12-14T11:31:55.431Z,13.98
2018-12-14T11:34:29.672Z,14.60
2018-12-14T11:36:55.347Z,12.82
2018-12-14T11:39:24.278Z,14.65
2018-12-14T11:41:53.641Z,15.50
2018-12-14T11:44:22.630Z,15.23
2018-12-14T11:46:51.835Z,15.72
2018-12-14T11:49:22.442Z,17.77
2018-12-14T11:51:51.377Z,17.45
2018-12-14T11:54:20.264Z,15.32
2018-12-14T11:56:49.280Z,17.37
2018-12-14T11:59:18.253Z,17.62
2018-12-14T12:01:47.173Z,18.65
2018-12-14T12:04:16.125Z,19.00
2018-12-14T12:06:45.035Z,18.80
2018-12-14T12:09:14.236Z,17.40
2018-12-14T12:11:43.379Z,16.30
2018-12-14T12:14:12.655Z,18.25
2018-12-14T12:16:41.609Z,17.45
2018-12-14T12:19:10.585Z,19.27
2018-12-14T12:21:39.830Z,16.32
2018-12-14T12:24:08.836Z,15.50
2018-12-14T12:26:37.749Z,18.82
2018-12-14T12:29:06.721Z,17.40
2018-12-14T12:31:35.637Z,20.10
2018-12-14T12:34:05.566Z,16.90
2018-12-14T12:36:34.555Z,16.05
2018-12-14T12:39:05.016Z,18.35
2018-12-14T12:41:33.936Z,15.90
2018-12-14T12:44:02.850Z,20.52
2018-12-14T12:46:31.843Z,18.77
2018-12-14T12:49:00.761Z,16.75
2018-12-14T12:51:29.672Z,20.80
2018-12-14T12:53:58.672Z,17.57
2018-12-14T12:56:27.767Z,20.82
2018-12-14T12:58:56.654Z,20.17
2018-12-14T13:01:25.605Z,17.35
2018-12-14T13:03:54.504Z,17.92
2018-12-14T13:06:23.457Z,19.37
2018-12-14T13:08:52.474Z,19.70
2018-12-14T13:11:21.433Z,17.12
2018-12-14T13:13:50.558Z,19.55
2018-12-14T13:16:19.541Z,18.20
2018-12-14T13:18:48.414Z,16.65
2018-12-14T13:21:17.548Z,18.60
2018-12-14T13:23:46.484Z,18.00
2018-12-14T13:26:15.344Z,16.30
2018-12-14T13:28:44.234Z,15.70
2018-12-14T13:31:13.173Z,18.37
2018-12-14T13:33:42.064Z,19.92
2018-12-14T13:36:11.208Z,20.80
2018-12-14T13:38:40.143Z,19.32
2018-12-14T13:41:09.062Z,17.10
2018-12-14T13:43:38.250Z,20.05
2018-12-14T13:46:07.697Z,19.42
2018-12-14T13:48:36.731Z,20.97
2018-12-14T13:51:05.711Z,20.52
2018-12-14T13:53:35.075Z,18.98
2018-12-14T13:56:04.168Z,17.25
2018-12-14T13:58:33.074Z,18.98
2018-12-14T14:01:02.031Z,20.57
2018-12-14T14:03:31.045Z,22.62
2018-12-14T14:05:59.960Z,22.00
2018-12-14T14:08:28.934Z,21.40
2018-12-14T14:10:58.097Z,22.50
2018-12-14T14:13:27.019Z,20.62
2018-12-14T14:15:55.993Z,19.75
2018-12-14T14:18:24.889Z,21.12
2018-12-14T14:20:54.063Z,20.37
2018-12-14T14:23:23.002Z,19.75
2018-12-14T14:25:52.985Z,21.20
2018-12-14T14:28:21.917Z,18.80
2018-12-14T14:30:51.309Z,20.27
2018-12-14T14:33:20.225Z,22.13
2018-12-14T14:35:49.133Z,18.98
2018-12-14T14:38:18.114Z,17.80
2018-12-14T14:40:47.022Z,19.75
2018-12-14T14:43:15.941Z,17.12
2018-12-14T14:45:45.061Z,16.20
2018-12-14T14:48:14.744Z,15.70
2018-12-14T14:50:44.011Z,17.73
2018-12-14T14:53:13.057Z,20.35
2018-12-14T14:55:42.086Z,18.07
2018-12-14T14:58:11.241Z,14.83
2018-12-14T15:00:40.370Z,18.65
2018-12-14T15:03:09.586Z,18.02
2018-12-14T15:05:38.528Z,17.82
2018-12-14T15:08:07.477Z,15.32
2018-12-14T15:10:36.389Z,15.40
2018-12-14T15:13:05.381Z,17.62
2018-12-14T15:15:34.421Z,17.37
2018-12-14T15:18:03.318Z,13.45
2018-12-14T15:20:33.596Z,15.05
2018-12-14T15:23:02.692Z,14.55
2018-12-14T15:25:32.024Z,14.45
2018-12-14T15:28:01.200Z,13.95
2018-12-14T15:30:30.489Z,13.68
2018-12-14T15:32:59.565Z,16.50
2018-12-14T15:35:28.836Z,13.62
2018-12-14T15:37:58.012Z,13.90
2018-12-14T15:40:28.300Z,11.55
2018-12-14T15:42:58.364Z,15.78
2018-12-14T15:45:27.331Z,14.60
2018-12-14T15:47:58.598Z,13.10
2018-12-14T15:50:27.933Z,15.03
2018-12-14T15:52:57.233Z,13.85
2018-12-14T15:55:26.623Z,11.10
2018-12-14T15:57:56.585Z,14.18
2018-12-14T16:00:26.404Z,13.08
2018-12-14T16:02:56.619Z,12.15
2018-12-14T16:05:25.519Z,12.18
2018-12-14T16:07:54.616Z,12.43
2018-12-14T16:10:23.788Z,11.70
2018-12-14T16:12:53.186Z,13.10
2018-12-14T16:15:23.626Z,11.30
2018-12-14T16:17:52.709Z,11.45
2018-12-14T16:20:22.119Z,10.82
2018-12-14T16:22:51.163Z,8.38
2018-12-14T16:25:20.363Z,11.08
2018-12-14T16:27:49.695Z,12.73
2018-12-14T16:30:19.415Z,11.12
2018-12-14T16:32:48.387Z,14.25
2018-12-14T16:35:17.351Z,13.05
2018-12-14T16:37:46.393Z,9.88
2018-12-14T16:40:16.593Z,10.75
2018-12-14T16:42:45.895Z,11.15
2018-12-14T16:45:15.078Z,12.47
2018-12-14T16:47:44.813Z,10.78
2018-12-14T16:50:14.470Z,13.15
2018-12-14T16:52:44.687Z,13.28
2018-12-14T16:55:15.058Z,17.00
2018-12-14T16:57:44.196Z,13.05
2018-12-14T17:00:13.741Z,13.72
2018-12-14T17:02:42.975Z,11.45
2018-12-14T17:05:12.339Z,15.18
2018-12-14T17:07:41.253Z,14.98
2018-12-14T17:10:10.910Z,21.87
2018-12-14T17:12:42.236Z,16.27
2018-12-14T17:15:11.148Z,15.28
2018-12-14T17:17:40.663Z,15.60
2018-12-14T17:20:09.770Z,14.47
2018-12-14T17:22:39.108Z,14.20
2018-12-14T17:25:08.470Z,13.75
2018-12-14T17:27:38.024Z,16.12
2018-12-14T17:30:08.397Z,12.53
2018-12-14T17:32:37.323Z,14.60
2018-12-14T17:35:06.876Z,14.28
2018-12-14T17:37:35.884Z,14.63
2018-12-14T17:40:06.002Z,12.50
2018-12-14T17:42:35.585Z,11.63
2018-12-14T17:45:04.990Z,12.35
2018-12-14T17:47:34.792Z,12.15
2018-12-14T17:50:04.166Z,12.15
2018-12-14T17:52:33.381Z,11.73
2018-12-14T17:55:02.669Z,13.68
2018-12-14T17:57:31.565Z,13.45
2018-12-14T18:00:00.507Z,13.88
2018-12-14T18:02:29.566Z,13.05
2018-12-14T18:04:58.597Z,14.00
2018-12-14T18:07:27.490Z,15.88
2018-12-14T18:09:57.781Z,12.98
2018-12-14T18:12:27.038Z,15.00
2018-12-14T18:14:56.849Z,13.28
2018-12-14T18:17:25.950Z,15.10
2018-12-14T18:19:55.061Z,16.32
2018-12-14T18:22:24.390Z,15.28
2018-12-14T18:24:53.626Z,14.45
2018-12-14T18:27:22.644Z,15.93
2018-12-14T18:29:51.532Z,17.02
2018-12-14T18:32:20.469Z,16.00
2018-12-14T18:34:49.429Z,14.50
2018-12-14T18:37:18.519Z,15.90
2018-12-14T18:39:47.484Z,15.75
2018-12-14T18:42:16.414Z,17.15
2018-12-14T18:44:45.477Z,16.35
2018-12-14T18:47:14.842Z,16.73
2018-12-14T18:49:44.611Z,15.98
2018-12-14T18:52:13.712Z,17.23
2018-12-14T18:54:43.102Z,16.73
2018-12-14T18:57:12.045Z,18.40
2018-12-14T18:59:41.041Z,18.60
2018-12-14T19:02:10.033Z,18.30
2018-12-14T19:04:38.975Z,17.80
2018-12-14T19:07:08.046Z,17.50
2018-12-14T19:09:37.400Z,16.97
2018-12-14T19:12:06.702Z,19.07
2018-12-14T19:14:35.588Z,17.77
2018-12-14T19:17:04.942Z,18.92
2018-12-14T19:19:34.217Z,17.45
2018-12-14T19:22:03.230Z,19.60
2018-12-14T19:24:32.205Z,17.82
2018-12-14T19:27:01.971Z,21.42
2018-12-14T19:29:31.178Z,22.62
2018-12-14T19:32:00.167Z,20.25
2018-12-14T19:34:31.495Z,22.65
2018-12-14T19:37:00.421Z,23.38
2018-12-14T19:39:30.340Z,18.80
2018-12-14T19:41:59.517Z,20.82
2018-12-14T19:44:28.629Z,19.65
2018-12-14T19:47:00.999Z,20.43
2018-12-14T19:49:31.065Z,20.82
2018-12-14T19:52:00.366Z,22.80
2018-12-14T19:54:29.836Z,19.85
2018-12-14T19:56:59.092Z,20.20
2018-12-14T19:59:28.102Z,23.42
2018-12-14T20:01:57.063Z,22.10
2018-12-14T20:04:26.746Z,23.52
2018-12-14T20:06:55.663Z,19.95
2018-12-14T20:09:24.692Z,18.20
2018-12-14T20:11:53.680Z,20.57
2018-12-14T20:14:23.692Z,19.37
2018-12-14T20:16:53.570Z,20.35
2018-12-14T20:19:23.852Z,20.90
2018-12-14T20:21:53.470Z,20.10
2018-12-14T20:24:22.565Z,23.00
2018-12-14T20:26:52.516Z,19.62
2018-12-14T20:29:21.569Z,19.23
2018-12-14T20:31:51.114Z,21.55
2018-12-14T20:34:20.170Z,23.27
2018-12-14T20:36:50.028Z,22.10
2018-12-14T20:39:19.006Z,21.20
2018-12-14T20:41:52.991Z,21.37
2018-12-14T20:44:22.219Z,22.95
2018-12-14T20:46:51.194Z,21.35
2018-12-14T20:49:20.407Z,24.37
2018-12-14T20:51:53.895Z,23.45
2018-12-14T20:54:23.106Z,23.18
2018-12-14T20:56:52.050Z,20.85
2018-12-14T20:59:21.353Z,20.68
2018-12-14T21:01:51.545Z,21.85
2018-12-14T21:04:20.513Z,22.58
2018-12-14T21:06:50.101Z,23.05
2018-12-14T21:09:19.286Z,21.93
2018-12-14T21:11:50.026Z,22.58
2018-12-14T21:14:20.337Z,20.82
2018-12-14T21:16:49.768Z,23.80
2018-12-14T21:19:18.713Z,22.80
2018-12-14T21:21:47.738Z,25.02
2018-12-14T21:24:17.003Z,22.98
2018-12-14T21:26:46.405Z,24.40
2018-12-14T21:29:16.140Z,25.02
2018-12-14T21:31:45.568Z,27.07
2018-12-14T21:34:14.928Z,24.67
2018-12-14T21:36:44.539Z,25.40
2018-12-14T21:39:13.885Z,22.77
2018-12-14T21:41:43.250Z,25.40
2018-12-14T21:44:12.251Z,28.45
2018-12-14T21:46:41.861Z,25.23
2018-12-14T21:49:11.547Z,22.22
2018-12-14T21:51:40.937Z,26.90
2018-12-14T21:54:10.023Z,26.60
2018-12-14T21:56:38.995Z,25.10
2018-12-14T21:59:08.742Z,26.50
2018-12-14T22:01:37.749Z,27.45
2018-12-14T22:04:06.824Z,27.20
2018-12-14T22:06:36.427Z,24.65
2018-12-14T22:09:09.448Z,24.35
2018-12-14T22:11:38.433Z,25.27
2018-12-14T22:14:08.574Z,25.85
2018-12-14T22:16:39.385Z,25.52
2018-12-14T22:19:08.764Z,27.32
2018-12-14T22:21:37.987Z,25.90
2018-12-14T22:24:06.908Z,27.45
2018-12-14T22:26:35.911Z,27.07
2018-12-14T22:29:05.509Z,25.10
2018-12-14T22:31:34.636Z,27.05
2018-12-14T22:34:03.756Z,27.75
2018-12-14T22:36:33.485Z,28.07
2018-12-14T22:39:02.662Z,26.68
2018-12-14T22:41:31.951Z,28.32
2018-12-14T22:44:00.911Z,29.67
2018-12-14T22:46:29.909Z,28.35
2018-12-14T22:48:58.955Z,26.17
2018-12-14T22:51:29.116Z,25.80
2018-12-14T22:53:58.700Z,28.15
2018-12-14T22:56:27.949Z,28.75
2018-12-14T22:58:56.985Z,25.82
2018-12-14T23:01:25.920Z,30.72
2018-12-14T23:03:54.874Z,27.22
2018-12-14T23:06:23.814Z,29.40
2018-12-14T23:08:52.733Z,30.82
2018-12-14T23:11:21.791Z,27.15
2018-12-14T23:13:50.762Z,26.33
2018-12-14T23:16:19.660Z,28.67
2018-12-14T23:18:48.935Z,32.13
2018-12-14T23:21:18.222Z,27.20
2018-12-14T23:23:47.283Z,28.77
2018-12-14T23:26:16.304Z,27.95
2018-12-14T23:28:45.681Z,31.05
2018-12-14T23:31:14.575Z,29.07
2018-12-14T23:33:43.718Z,27.75
2018-12-14T23:36:12.614Z,28.95
2018-12-14T23:38:41.496Z,27.48
2018-12-14T23:41:10.440Z,28.52
2018-12-14T23:43:39.554Z,28.67
2018-12-14T23:46:08.468Z,29.85
2018-12-14T23:48:37.745Z,30.35
2018-12-14T23:51:06.661Z,28.85
2018-12-14T23:53:36.498Z,28.05
2018-12-14T23:56:05.641Z,29.60
2018-12-14T23:58:34.562Z,29.92
